Time;durP1;ratioP1;P1;durP2;ratioP2;P2;SDS_P1;SDS_P2;PMS_P1;PMS_P2;Temp;Humidity;BMP_temperature;BMP_pressure;BME280_temperature;BME280_humidity;BME280_pressure;Samples;Min_cycle;Max_cycle;Signal;HPM_P1;HPM_P2
2023/07/12 00:00:34;;;;;;;5.63;4.13;;;21.30;1.00;;;;;;4990316;28;20187;-75
2023/07/12 00:03:00;;;;;;;9.63;4.20;;;21.40;1.00;;;;;;4993212;28;20464;-74
2023/07/12 00:05:29;;;;;;;6.43;4.50;;;21.50;1.00;;;;;;4992706;28;20581;-74
2023/07/12 00:07:55;;;;;;;9.77;4.40;;;21.50;1.00;;;;;;4993202;28;20686;-74
2023/07/12 00:10:24;;;;;;;6.23;4.23;;;21.60;1.00;;;;;;4992916;28;20548;-73
2023/07/12 00:12:50;;;;;;;7.43;4.13;;;21.60;1.00;;;;;;4992728;28;20936;-75
2023/07/12 00:15:25;;;;;;;9.00;4.60;;;21.70;1.00;;;;;;4991520;28;20521;-74
2023/07/12 00:17:52;;;;;;;6.43;4.50;;;21.70;1.00;;;;;;4991570;28;20840;-74
2023/07/12 00:20:37;;;;;;;6.20;4.63;;;21.80;1.00;;;;;;4992063;28;20508;-72
2023/07/12 00:23:02;;;;;;;8.13;3.87;;;21.80;1.00;;;;;;4991189;28;20485;-72
2023/07/12 00:25:31;;;;;;;8.53;4.07;;;21.80;1.00;;;;;;4992623;28;21011;-74
2023/07/12 00:27:57;;;;;;;7.43;3.90;;;21.80;1.00;;;;;;4992723;28;20556;-74
2023/07/12 00:30:31;;;;;;;5.00;3.67;;;21.80;1.00;;;;;;4992286;28;20903;-73
2023/07/12 00:33:02;;;;;;;5.67;3.60;;;21.90;1.00;;;;;;4992525;28;20541;-74
2023/07/12 00:35:28;;;;;;;5.90;4.10;;;21.90;1.00;;;;;;4987511;28;20465;-74
2023/07/12 00:37:56;;;;;;;5.43;3.80;;;22.00;1.00;;;;;;4992643;28;20426;-74
2023/07/12 00:40:37;;;;;;;7.70;3.80;;;21.90;1.00;;;;;;4992097;28;20433;-73
2023/07/12 00:43:11;;;;;;;5.97;3.80;;;22.00;1.00;;;;;;4992292;28;20473;-73
2023/07/12 00:45:38;;;;;;;8.10;3.83;;;22.10;1.00;;;;;;4992308;28;20927;-74
2023/07/12 00:48:09;;;;;;;6.93;4.20;;;22.10;1.00;;;;;;4992457;28;20500;-73
2023/07/12 00:50:35;;;;;;;7.43;4.63;;;22.10;1.00;;;;;;4992367;28;20510;-74
2023/07/12 00:53:00;;;;;;;5.10;4.07;;;22.10;1.00;;;;;;4991834;28;20541;-74
2023/07/12 00:55:50;;;;;;;6.53;3.80;;;22.00;1.00;;;;;;4991792;28;20199;-74
2023/07/12 00:58:16;;;;;;;7.83;3.40;;;22.00;1.00;;;;;;4992093;28;20190;-71
2023/07/12 01:00:41;;;;;;;5.37;3.67;;;22.00;1.00;;;;;;4991686;28;20424;-74
2023/07/12 01:03:13;;;;;;;7.23;4.17;;;22.00;1.00;;;;;;4991682;28;20238;-73
2023/07/12 01:05:40;;;;;;;5.30;3.90;;;21.90;1.00;;;;;;4991493;28;20213;-73
2023/07/12 01:08:06;;;;;;;5.97;4.10;;;21.90;1.00;;;;;;4990676;28;20510;-74
2023/07/12 01:10:31;;;;;;;6.40;4.10;;;21.90;1.00;;;;;;4991469;28;20868;-74
2023/07/12 01:12:57;;;;;;;6.73;4.40;;;22.00;1.00;;;;;;4990967;28;20664;-74
2023/07/12 01:15:23;;;;;;;5.70;3.83;;;21.90;1.00;;;;;;4991138;28;20197;-71
2023/07/12 01:17:49;;;;;;;5.53;3.90;;;21.90;1.00;;;;;;4991747;28;20480;-74
2023/07/12 01:20:14;;;;;;;6.93;4.47;;;22.00;1.00;;;;;;4991510;28;20460;-74
2023/07/12 01:22:41;;;;;;;6.40;4.03;;;22.00;1.00;;;;;;4991408;28;20214;-73
2023/07/12 01:25:06;;;;;;;6.80;4.33;;;22.00;1.00;;;;;;4991481;28;20203;-74
2023/07/12 01:27:32;;;;;;;8.00;4.03;;;22.00;1.00;;;;;;4989907;28;20421;-74
2023/07/12 01:29:58;;;;;;;5.83;3.90;;;22.00;1.00;;;;;;4991397;28;20179;-73
2023/07/12 01:32:25;;;;;;;7.10;4.17;;;22.00;1.00;;;;;;4991889;28;20195;-73
2023/07/12 01:34:51;;;;;;;8.27;4.43;;;22.00;1.00;;;;;;4981378;28;20190;-73
2023/07/12 01:37:17;;;;;;;5.50;3.70;;;22.00;1.00;;;;;;4985257;28;20423;-74
2023/07/12 01:39:42;;;;;;;8.00;4.30;;;22.00;1.00;;;;;;4989605;28;20273;-73
2023/07/12 01:42:08;;;;;;;6.73;3.90;;;21.90;1.00;;;;;;4991202;28;20226;-73
2023/07/12 01:44:33;;;;;;;6.83;4.20;;;21.90;1.00;;;;;;4990804;28;20289;-73
2023/07/12 01:46:59;;;;;;;6.73;4.10;;;21.90;1.00;;;;;;4991190;28;20186;-74
2023/07/12 01:49:24;;;;;;;6.03;3.80;;;21.90;1.00;;;;;;4990879;28;20605;-73
2023/07/12 01:51:50;;;;;;;6.90;4.10;;;21.90;1.00;;;;;;4990751;28;20651;-74
2023/07/12 01:54:15;;;;;;;5.53;3.77;;;21.90;1.00;;;;;;4990682;28;20229;-74
2023/07/12 01:56:41;;;;;;;11.70;4.23;;;21.90;1.00;;;;;;4990623;28;20649;-74
2023/07/12 01:59:06;;;;;;;5.90;4.13;;;21.90;1.00;;;;;;4991250;28;20556;-73
2023/07/12 02:01:32;;;;;;;9.13;4.70;;;21.80;1.00;;;;;;4991118;28;20562;-73
2023/07/12 02:03:57;;;;;;;8.57;3.93;;;21.90;1.00;;;;;;4990247;28;20685;-73
2023/07/12 02:06:23;;;;;;;6.17;4.10;;;21.90;1.00;;;;;;4990862;28;20708;-74
2023/07/12 02:08:48;;;;;;;5.90;4.00;;;21.90;1.00;;;;;;4990261;28;20294;-73
2023/07/12 02:11:14;;;;;;;7.00;3.83;;;21.90;1.00;;;;;;4990867;28;20715;-73
2023/07/12 02:13:40;;;;;;;7.23;4.10;;;21.80;1.00;;;;;;4989719;28;20746;-74
2023/07/12 02:16:06;;;;;;;7.03;4.20;;;21.80;1.00;;;;;;4990812;28;20194;-73
2023/07/12 02:18:31;;;;;;;13.80;4.10;;;21.80;1.00;;;;;;4989886;28;20787;-72
2023/07/12 02:20:57;;;;;;;9.27;3.80;;;21.80;1.00;;;;;;4990759;28;20193;-74
2023/07/12 02:23:22;;;;;;;5.37;3.73;;;21.80;1.00;;;;;;4990033;28;20705;-74
2023/07/12 02:25:48;;;;;;;12.60;4.37;;;21.80;1.00;;;;;;4990057;28;20238;-73
2023/07/12 02:28:14;;;;;;;5.50;4.13;;;21.80;1.00;;;;;;4989978;28;20530;-74
2023/07/12 02:30:42;;;;;;;6.40;4.03;;;21.80;1.00;;;;;;4990027;28;20189;-73
2023/07/12 02:33:07;;;;;;;6.37;4.03;;;21.80;1.00;;;;;;4989597;28;20309;-72
2023/07/12 02:35:33;;;;;;;9.77;4.07;;;21.80;1.00;;;;;;4984011;28;20948;-73
2023/07/12 02:38:00;;;;;;;9.10;4.73;;;21.80;1.00;;;;;;4990299;28;20584;-73
2023/07/12 02:40:27;;;;;;;9.80;4.43;;;21.80;1.00;;;;;;4990212;28;20221;-73
2023/07/12 02:42:53;;;;;;;5.67;4.00;;;21.80;1.00;;;;;;4989756;28;20580;-74
2023/07/12 02:45:20;;;;;;;6.60;3.90;;;21.80;1.00;;;;;;4989870;28;20555;-74
2023/07/12 02:47:45;;;;;;;6.73;4.00;;;21.70;1.00;;;;;;4989910;28;20436;-74
2023/07/12 02:50:11;;;;;;;7.90;3.77;;;21.70;1.00;;;;;;4990063;28;20779;-73
2023/07/12 02:52:36;;;;;;;6.40;4.10;;;21.70;1.00;;;;;;4988337;28;20481;-72
2023/07/12 02:55:03;;;;;;;12.07;4.10;;;21.70;1.00;;;;;;4989996;28;20197;-73
2023/07/12 02:57:28;;;;;;;7.27;4.60;;;21.70;1.00;;;;;;4990374;28;20186;-73
2023/07/12 02:59:54;;;;;;;9.07;4.03;;;21.70;1.00;;;;;;4989976;28;20425;-72
2023/07/12 03:02:20;;;;;;;7.73;3.77;;;21.70;1.00;;;;;;4990369;28;20580;-73
2023/07/12 03:04:45;;;;;;;6.43;4.37;;;21.60;1.00;;;;;;4989335;28;20892;-73
2023/07/12 03:07:11;;;;;;;9.30;4.47;;;21.60;1.00;;;;;;4988734;28;20266;-73
2023/07/12 03:09:37;;;;;;;8.60;4.57;;;21.60;1.00;;;;;;4989528;28;20269;-73
2023/07/12 03:12:03;;;;;;;8.13;4.33;;;21.50;1.00;;;;;;4989843;28;20209;-73
2023/07/12 03:14:28;;;;;;;7.53;4.40;;;21.50;1.00;;;;;;4980767;28;20684;-73
2023/07/12 03:16:54;;;;;;;10.90;4.40;;;21.50;1.00;;;;;;4988844;28;20187;-73
2023/07/12 03:19:20;;;;;;;6.20;4.50;;;21.50;1.00;;;;;;4989851;28;20190;-73
2023/07/12 03:21:46;;;;;;;6.53;4.23;;;21.50;1.00;;;;;;4989453;28;20193;-73
2023/07/12 03:24:12;;;;;;;8.27;4.40;;;21.40;1.00;;;;;;4989388;28;20445;-73
2023/07/12 03:26:38;;;;;;;8.40;4.37;;;21.50;1.00;;;;;;4989336;28;20457;-72
2023/07/12 03:29:04;;;;;;;9.03;4.23;;;21.50;1.00;;;;;;4988292;28;20205;-73
2023/07/12 03:31:30;;;;;;;6.03;4.20;;;21.40;1.00;;;;;;4989223;28;20190;-73
2023/07/12 03:33:58;;;;;;;6.23;4.10;;;21.40;1.00;;;;;;4988491;28;20875;-73
2023/07/12 03:36:26;;;;;;;14.30;5.10;;;21.50;1.00;;;;;;4992202;28;20182;-73
2023/07/12 03:38:54;;;;;;;10.30;4.07;;;21.50;1.00;;;;;;4992976;28;20433;-74
2023/07/12 03:41:20;;;;;;;7.90;4.70;;;21.60;1.00;;;;;;4993744;28;20517;-74
2023/07/12 03:43:47;;;;;;;8.40;4.83;;;21.50;1.00;;;;;;4992478;28;20453;-73
2023/07/12 03:46:13;;;;;;;8.20;4.20;;;21.50;1.00;;;;;;4993547;28;20465;-73
2023/07/12 03:48:39;;;;;;;8.57;4.47;;;21.50;1.00;;;;;;4993119;28;20433;-72
2023/07/12 03:51:05;;;;;;;7.93;4.60;;;21.50;1.00;;;;;;4993549;28;20422;-72
2023/07/12 03:53:31;;;;;;;6.50;4.10;;;21.50;1.00;;;;;;4992774;28;20314;-73
2023/07/12 03:55:59;;;;;;;12.47;4.13;;;21.50;1.00;;;;;;4993054;28;20924;-73
2023/07/12 03:58:32;;;;;;;8.13;4.50;;;21.50;1.00;;;;;;4992922;28;20190;-73
2023/07/12 04:01:03;;;;;;;7.60;4.67;;;21.40;1.00;;;;;;4993247;28;20425;-74
2023/07/12 04:03:29;;;;;;;12.30;4.83;;;21.40;1.00;;;;;;4992677;28;20452;-73
2023/07/12 04:05:54;;;;;;;10.40;4.73;;;21.40;1.00;;;;;;4992646;28;20461;-73
2023/07/12 04:08:20;;;;;;;11.17;4.50;;;21.30;1.00;;;;;;4993046;28;20640;-73
2023/07/12 04:10:53;;;;;;;8.47;4.93;;;21.30;1.00;;;;;;4992555;28;20194;-72
2023/07/12 04:13:18;;;;;;;9.33;4.60;;;21.30;1.00;;;;;;4992543;28;20209;-70
2023/07/12 04:15:44;;;;;;;14.10;5.17;;;21.40;1.00;;;;;;4992638;28;20516;-73
2023/07/12 04:18:09;;;;;;;5.80;4.40;;;21.40;1.00;;;;;;4992973;28;20193;-73
2023/07/12 04:20:39;;;;;;;8.30;4.63;;;21.40;1.00;;;;;;4992798;28;20245;-73
2023/07/12 04:23:05;;;;;;;11.77;5.30;;;21.60;1.00;;;;;;4984418;28;20221;-72
2023/07/12 04:25:32;;;;;;;9.70;4.87;;;21.50;1.00;;;;;;4992359;28;20978;-72
2023/07/12 04:27:58;;;;;;;6.60;5.10;;;21.90;1.00;;;;;;4992465;28;20513;-73
2023/07/12 04:30:23;;;;;;;8.80;5.00;;;21.70;1.00;;;;;;4992562;28;20508;-73
2023/07/12 04:32:52;;;;;;;10.20;5.47;;;21.70;1.00;;;;;;4993384;28;20202;-73
2023/07/12 04:35:20;;;;;;;6.40;4.40;;;21.80;1.00;;;;;;4991811;28;20202;-73
2023/07/12 04:37:50;;;;;;;10.83;4.57;;;21.80;1.00;;;;;;4992037;28;20520;-74
2023/07/12 04:40:17;;;;;;;11.10;5.10;;;21.90;1.00;;;;;;4992171;28;20434;-73
2023/07/12 04:42:43;;;;;;;10.27;5.30;;;22.00;1.00;;;;;;4991955;28;20996;-70
2023/07/12 04:45:13;;;;;;;8.00;4.67;;;22.10;1.00;;;;;;4991992;28;20675;-73
2023/07/12 04:47:41;;;;;;;8.07;4.57;;;22.10;1.00;;;;;;4991609;28;20179;-73
2023/07/12 04:50:09;;;;;;;8.87;5.00;;;22.20;1.00;;;;;;4992625;28;20414;-73
2023/07/12 04:52:35;;;;;;;12.20;5.10;;;22.20;1.00;;;;;;4991939;28;20456;-72
2023/07/12 04:55:03;;;;;;;10.70;4.97;;;22.30;1.00;;;;;;4990246;28;20417;-74
2023/07/12 04:57:30;;;;;;;10.30;5.50;;;22.30;1.00;;;;;;4992135;28;20222;-74
2023/07/12 04:59:55;;;;;;;7.50;5.17;;;22.30;1.00;;;;;;4991713;28;20438;-72
2023/07/12 05:02:21;;;;;;;10.83;5.47;;;22.30;1.00;;;;;;4991968;28;20797;-73
2023/07/12 05:04:46;;;;;;;11.30;5.10;;;22.40;1.00;;;;;;4983914;28;20241;-73
2023/07/12 05:07:12;;;;;;;9.17;5.83;;;22.50;1.00;;;;;;4992178;28;20538;-73
2023/07/12 05:09:38;;;;;;;10.07;5.60;;;22.50;1.00;;;;;;4991857;28;20596;-74
2023/07/12 05:12:04;;;;;;;11.50;5.77;;;22.70;1.00;;;;;;4991512;28;20249;-73
2023/07/12 05:14:29;;;;;;;9.43;5.77;;;22.70;1.00;;;;;;4991583;28;20179;-74
2023/07/12 05:16:55;;;;;;;12.70;5.87;;;22.80;1.00;;;;;;4991491;28;20422;-73
2023/07/12 05:19:20;;;;;;;10.97;5.80;;;22.80;1.00;;;;;;4991769;28;20178;-73
2023/07/12 05:21:46;;;;;;;11.40;5.80;;;22.80;1.00;;;;;;4991180;28;20553;-72
2023/07/12 05:24:12;;;;;;;14.10;6.30;;;22.90;1.00;;;;;;4991241;28;20437;-74
2023/07/12 05:26:37;;;;;;;17.80;7.40;;;23.10;1.00;;;;;;4990243;28;20206;-73
2023/07/12 05:29:03;;;;;;;10.00;6.20;;;23.20;1.00;;;;;;4991101;28;20269;-73
2023/07/12 05:31:28;;;;;;;12.97;7.07;;;23.20;1.00;;;;;;4991538;28;20262;-73
2023/07/12 05:33:54;;;;;;;9.17;5.73;;;23.20;1.00;;;;;;4990273;28;20491;-73
2023/07/12 05:36:20;;;;;;;11.63;6.40;;;23.10;1.00;;;;;;4991347;28;20576;-74
2023/07/12 05:38:45;;;;;;;9.83;5.70;;;23.20;1.00;;;;;;4991130;28;20209;-74
2023/07/12 05:41:11;;;;;;;10.50;6.10;;;23.30;1.00;;;;;;4983521;28;20183;-74
2023/07/12 05:43:37;;;;;;;9.77;6.40;;;23.10;1.00;;;;;;4990813;28;20298;-73
2023/07/12 05:46:03;;;;;;;9.53;6.40;;;23.20;1.00;;;;;;4990996;28;20206;-74
2023/07/12 05:48:29;;;;;;;9.30;6.10;;;23.20;1.00;;;;;;4991127;28;20444;-72
2023/07/12 05:50:57;;;;;;;14.70;7.37;;;23.30;1.00;;;;;;4990802;28;20661;-73
2023/07/12 05:53:23;;;;;;;11.30;6.60;;;23.50;1.00;;;;;;4990683;28;20508;-73
2023/07/12 05:55:57;;;;;;;9.70;6.50;;;23.60;1.00;;;;;;4990772;28;20461;-72
2023/07/12 05:58:24;;;;;;;12.23;6.67;;;23.50;1.00;;;;;;4991111;28;20189;-73
2023/07/12 06:01:01;;;;;;;14.00;6.83;;;23.60;1.00;;;;;;4989390;28;20516;-72
2023/07/12 06:03:28;;;;;;;10.30;6.60;;;23.60;1.00;;;;;;4990346;28;20851;-73
2023/07/12 06:05:53;;;;;;;11.83;6.97;;;23.60;1.00;;;;;;4989170;28;20484;-73
2023/07/12 06:08:20;;;;;;;9.33;6.90;;;23.50;1.00;;;;;;4990754;28;20931;-73
2023/07/12 06:10:47;;;;;;;11.20;6.87;;;23.50;1.00;;;;;;4990936;28;20692;-73
2023/07/12 06:13:13;;;;;;;13.13;6.90;;;23.60;1.00;;;;;;4989958;28;20863;-73
2023/07/12 06:15:39;;;;;;;13.03;6.73;;;23.70;1.00;;;;;;4990811;28;20418;-73
2023/07/12 06:18:04;;;;;;;10.63;7.30;;;23.70;1.00;;;;;;4990142;28;20429;-74
2023/07/12 06:20:30;;;;;;;16.87;6.93;;;23.60;1.00;;;;;;4990673;28;20313;-73
2023/07/12 06:22:57;;;;;;;9.63;6.70;;;23.80;1.00;;;;;;4989916;28;20214;-74
2023/07/12 06:25:23;;;;;;;11.67;6.60;;;23.80;1.00;;;;;;4990268;28;20257;-73
2023/07/12 06:27:49;;;;;;;10.10;6.50;;;23.90;1.00;;;;;;4990664;28;20782;-73
2023/07/12 06:30:17;;;;;;;12.67;7.20;;;24.00;1.00;;;;;;4990065;28;20446;-73
2023/07/12 06:32:42;;;;;;;11.43;7.27;;;24.10;1.00;;;;;;4989966;28;20293;-74
2023/07/12 06:35:08;;;;;;;11.20;7.27;;;24.20;1.00;;;;;;4989834;28;20560;-74
2023/07/12 06:37:34;;;;;;;13.90;7.00;;;24.40;1.00;;;;;;4990466;28;20205;-74
2023/07/12 06:39:59;;;;;;;13.20;7.20;;;24.60;1.00;;;;;;4989767;28;20562;-73
2023/07/12 06:42:28;;;;;;;11.20;6.93;;;24.60;1.00;;;;;;4990289;28;20225;-74
2023/07/12 06:44:54;;;;;;;11.37;6.97;;;24.70;1.00;;;;;;4989634;28;20568;-72
2023/07/12 06:47:20;;;;;;;10.40;6.53;;;24.70;1.00;;;;;;4990726;28;20429;-73
2023/07/12 06:49:46;;;;;;;10.30;6.90;;;24.50;1.00;;;;;;4990177;28;20410;-74
2023/07/12 06:52:11;;;;;;;8.77;6.20;;;24.20;1.00;;;;;;4988422;28;20229;-74
2023/07/12 06:54:37;;;;;;;11.13;6.37;;;24.20;1.00;;;;;;4989863;28;20218;-73
2023/07/12 06:57:03;;;;;;;11.70;6.87;;;24.20;1.00;;;;;;4988609;28;20209;-74
2023/07/12 06:59:28;;;;;;;9.83;6.80;;;24.20;1.00;;;;;;4988875;28;20241;-73
2023/07/12 07:01:54;;;;;;;8.27;6.17;;;24.30;1.00;;;;;;4989715;28;20637;-71
2023/07/12 07:04:19;;;;;;;13.20;6.60;;;24.40;1.00;;;;;;4989777;28;20205;-73
2023/07/12 07:06:45;;;;;;;10.77;6.90;;;24.40;1.00;;;;;;4990110;28;20746;-73
2023/07/12 07:09:10;;;;;;;15.50;6.87;;;24.70;1.00;;;;;;4989647;28;20193;-73
2023/07/12 07:11:36;;;;;;;13.27;6.80;;;24.60;1.00;;;;;;4988119;28;20561;-73
2023/07/12 07:14:02;;;;;;;10.40;5.97;;;24.90;1.00;;;;;;4989156;28;20198;-73
2023/07/12 07:16:27;;;;;;;11.87;6.50;;;24.90;1.00;;;;;;4989954;28;20684;-73
2023/07/12 07:18:54;;;;;;;11.13;7.00;;;25.00;1.00;;;;;;4989887;28;20273;-73
2023/07/12 07:21:19;;;;;;;13.60;6.30;;;25.00;1.00;;;;;;4990040;28;20182;-73
2023/07/12 07:23:45;;;;;;;11.43;6.77;;;25.00;1.00;;;;;;4989325;28;20457;-73
2023/07/12 07:26:11;;;;;;;8.83;6.53;;;25.10;1.00;;;;;;4989373;28;20310;-73
2023/07/12 07:28:38;;;;;;;13.30;7.37;;;25.30;1.00;;;;;;4989679;28;20553;-73
2023/07/12 07:31:04;;;;;;;11.93;6.47;;;25.20;1.00;;;;;;4988123;28;20911;-73
2023/07/12 07:33:30;;;;;;;15.90;7.10;;;25.30;1.00;;;;;;4994048;28;20537;-72
2023/07/12 07:35:55;;;;;;;10.40;7.20;;;24.40;1.00;;;;;;4988484;28;20513;-73
2023/07/12 07:38:28;;;;;;;15.47;7.30;;;25.90;1.00;;;;;;4989280;28;20338;-73
2023/07/12 07:40:55;;;;;;;25.90;7.50;;;26.10;1.00;;;;;;4989699;28;20202;-73
2023/07/12 07:43:21;;;;;;;10.93;7.37;;;26.20;1.00;;;;;;4988869;28;21279;-73
2023/07/12 07:45:48;;;;;;;12.33;7.33;;;26.30;1.00;;;;;;4989588;28;20954;-73
2023/07/12 07:48:15;;;;;;;17.33;7.50;;;26.40;1.00;;;;;;4989319;28;20492;-72
2023/07/12 07:50:42;;;;;;;13.20;7.37;;;26.30;1.00;;;;;;4989587;28;20433;-74
2023/07/12 07:53:07;;;;;;;13.03;7.30;;;26.40;1.00;;;;;;4989045;28;20564;-71
2023/07/12 07:55:33;;;;;;;9.97;6.97;;;26.50;1.00;;;;;;4989553;28;20521;-74
2023/07/12 07:57:58;;;;;;;12.00;7.53;;;26.60;1.00;;;;;;4989175;28;20313;-71
2023/07/12 08:00:24;;;;;;;9.23;7.23;;;26.70;1.00;;;;;;4989405;28;20237;-74
2023/07/12 08:02:50;;;;;;;8.70;6.63;;;26.70;1.00;;;;;;4989396;28;20225;-73
2023/07/12 08:05:16;;;;;;;13.77;7.07;;;26.80;1.00;;;;;;4988661;28;20209;-73
2023/07/12 08:07:46;;;;;;;12.93;7.10;;;26.70;1.00;;;;;;4989528;28;20513;-74
2023/07/12 08:10:16;;;;;;;9.60;6.60;;;26.80;1.00;;;;;;4989052;28;20237;-73
2023/07/12 08:12:41;;;;;;;9.27;6.73;;;27.00;1.00;;;;;;4987779;28;20601;-73
2023/07/12 08:15:07;;;;;;;10.10;6.60;;;27.40;1.00;;;;;;4988851;28;20791;-73
2023/07/12 08:17:33;;;;;;;13.73;6.40;;;27.50;1.00;;;;;;4988232;28;20661;-74
2023/07/12 08:19:58;;;;;;;11.27;6.50;;;27.60;1.00;;;;;;4989280;28;20189;-74
2023/07/12 08:22:25;;;;;;;12.20;7.20;;;27.70;1.00;;;;;;4991087;28;20213;-74
2023/07/12 08:24:51;;;;;;;10.67;6.70;;;27.90;1.00;;;;;;4993469;28;20269;-73
2023/07/12 08:27:16;;;;;;;9.50;6.60;;;27.90;1.00;;;;;;4992779;28;20607;-74
2023/07/12 08:29:43;;;;;;;15.13;6.77;;;28.10;1.00;;;;;;4991421;28;20711;-73
2023/07/12 08:32:09;;;;;;;13.00;5.80;;;28.60;1.00;;;;;;4992264;28;20262;-73
2023/07/12 08:34:35;;;;;;;14.70;6.57;;;28.60;1.00;;;;;;4992292;28;20722;-73
2023/07/12 08:37:00;;;;;;;11.70;7.40;;;27.20;1.00;;;;;;4992621;28;20182;-73
2023/07/12 08:39:26;;;;;;;9.73;6.30;;;28.40;1.00;;;;;;4991773;28;20598;-74
2023/07/12 08:41:52;;;;;;;9.20;5.60;;;28.50;1.00;;;;;;4992358;28;20302;-73
2023/07/12 08:44:18;;;;;;;8.23;5.87;;;28.70;1.00;;;;;;4991715;28;20242;-73
2023/07/12 08:46:51;;;;;;;11.90;5.93;;;28.70;1.00;;;;;;4992496;28;20677;-73
2023/07/12 08:49:17;;;;;;;9.20;4.80;;;28.80;1.00;;;;;;4991913;28;20244;-74
2023/07/12 08:51:44;;;;;;;10.07;5.87;;;29.00;1.00;;;;;;4991035;28;20210;-73
2023/07/12 08:54:19;;;;;;;6.37;5.00;;;29.30;1.00;;;;;;4991437;28;20697;-73
2023/07/12 08:56:45;;;;;;;13.87;5.13;;;29.60;1.00;;;;;;4992266;28;20201;-71
2023/07/12 08:59:13;;;;;;;7.43;4.80;;;29.70;1.00;;;;;;4991745;28;20174;-73
2023/07/12 09:01:52;;;;;;;7.43;5.20;;;29.80;1.00;;;;;;4992181;28;20179;-73
2023/07/12 09:04:26;;;;;;;16.43;5.33;;;30.00;1.00;;;;;;4991267;28;20313;-74
2023/07/12 09:06:57;;;;;;;7.90;5.53;;;29.90;1.00;;;;;;4991794;28;20217;-74
2023/07/12 09:09:24;;;;;;;9.30;5.30;;;30.10;1.00;;;;;;4991603;28;20665;-74
2023/07/12 09:11:49;;;;;;;8.75;4.90;;;30.20;1.00;;;;;;4991907;28;20182;-73
2023/07/12 09:14:17;;;;;;;7.25;5.10;;;31.00;1.00;;;;;;4989930;28;20699;-74
2023/07/12 09:16:47;;;;;;;8.43;5.30;;;31.90;1.00;;;;;;4992315;28;20230;-74
2023/07/12 09:19:25;;;;;;;5.57;4.82;;;32.10;1.00;;;;;;4990982;28;20237;-74
2023/07/12 09:21:56;;;;;;;8.60;5.10;;;32.80;1.00;;;;;;4991758;28;20179;-74
2023/07/12 09:24:24;;;;;;;6.82;4.93;;;32.90;1.00;;;;;;4989884;28;20193;-74
2023/07/12 09:26:50;;;;;;;6.82;5.10;;;33.00;1.00;;;;;;4990319;28;20209;-74
2023/07/12 09:29:24;;;;;;;9.25;4.80;;;32.90;1.00;;;;;;4991261;28;20600;-74
2023/07/12 09:31:51;;;;;;;9.95;4.55;;;33.30;1.00;;;;;;4990887;28;20561;-75
2023/07/12 09:34:37;;;;;;;6.80;4.53;;;33.60;1.00;;;;;;4987409;28;20586;-74
2023/07/12 09:37:03;;;;;;;7.55;5.13;;;33.00;1.00;;;;;;4991315;28;20298;-75
2023/07/12 09:39:29;;;;;;;8.10;4.50;;;32.50;1.00;;;;;;4991107;28;20244;-75
2023/07/12 09:41:59;;;;;;;6.22;4.47;;;33.30;1.00;;;;;;4991574;28;20234;-74
2023/07/12 09:44:30;;;;;;;10.30;5.07;;;34.00;1.00;;;;;;4990546;28;20193;-74
2023/07/12 09:47:22;;;;;;;9.98;4.57;;;34.10;1.00;;;;;;4991267;28;20209;-72
2023/07/12 09:50:00;;;;;;;6.15;4.50;;;33.80;1.00;;;;;;4985331;28;20226;-74
2023/07/12 09:52:32;;;;;;;8.90;4.43;;;33.50;1.00;;;;;;4990716;28;20607;-73
2023/07/12 09:55:21;;;;;;;6.35;4.40;;;34.20;1.00;;;;;;4990680;28;20283;-75
2023/07/12 09:58:24;;;;;;;7.60;4.68;;;35.00;1.00;;;;;;4985118;28;20692;-75
2023/07/12 10:01:04;;;;;;;5.70;4.05;;;34.70;1.00;;;;;;4984992;28;20186;-75
2023/07/12 10:03:41;;;;;;;8.98;4.70;;;35.30;1.00;;;;;;4990075;28;20218;-74
2023/07/12 10:06:22;;;;;;;7.93;4.10;;;35.10;1.00;;;;;;4989530;28;20206;-75
2023/07/12 10:09:06;;;;;;;5.75;4.22;;;34.90;1.00;;;;;;4990802;28;20275;-75
2023/07/12 10:11:38;;;;;;;9.48;4.25;;;34.90;1.00;;;;;;4990805;28;20445;-75
2023/07/12 10:14:08;;;;;;;6.55;4.28;;;35.10;1.00;;;;;;4989113;28;20197;-75
2023/07/12 10:16:39;;;;;;;8.02;4.00;;;34.10;1.00;;;;;;4990521;28;20226;-74
2023/07/12 10:19:22;;;;;;;5.75;4.32;;;34.90;1.00;;;;;;4990775;28;20518;-75
2023/07/12 10:21:54;;;;;;;7.22;4.03;;;35.40;1.00;;;;;;4984015;28;20192;-74
2023/07/12 10:24:24;;;;;;;7.93;4.07;;;36.20;1.00;;;;;;4989952;28;20242;-74
2023/07/12 10:26:50;;;;;;;7.80;3.90;;;36.90;1.00;;;;;;4989234;28;20205;-74
2023/07/12 10:29:26;;;;;;;9.10;4.32;;;37.70;1.00;;;;;;4990159;28;20194;-74
2023/07/12 10:31:57;;;;;;;7.00;4.35;;;37.70;1.00;;;;;;4990370;28;20182;-76
2023/07/12 10:34:31;;;;;;;7.82;3.97;;;38.50;1.00;;;;;;4989701;28;20257;-75
2023/07/12 10:37:10;;;;;;;6.88;3.90;;;38.50;1.00;;;;;;4990441;28;20185;-75
2023/07/12 10:39:35;;;;;;;5.80;4.00;;;37.90;1.00;;;;;;4990331;28;20205;-75
2023/07/12 10:42:40;;;;;;;7.32;3.80;;;38.50;1.00;;;;;;4990253;28;20338;-75
2023/07/12 10:45:12;;;;;;;6.72;3.80;;;38.60;1.00;;;;;;4983324;28;20309;-75
2023/07/12 10:47:40;;;;;;;7.25;3.78;;;38.70;1.00;;;;;;4990024;28;20265;-75
2023/07/12 10:50:21;;;;;;;4.60;3.33;;;38.90;1.00;;;;;;4990234;28;20317;-75
2023/07/12 10:52:59;;;;;;;6.88;3.90;;;38.80;1.00;;;;;;4983275;28;20305;-74
2023/07/12 10:55:38;;;;;;;7.07;3.53;;;39.00;1.00;;;;;;4989878;28;20202;-75
2023/07/12 10:58:25;;;;;;;6.35;4.10;;;40.10;1.00;;;;;;4990205;28;20178;-75
2023/07/12 11:00:54;;;;;;;4.30;3.35;;;40.30;1.00;;;;;;4983762;28;20190;-75
2023/07/12 11:03:47;;;;;;;7.93;4.15;;;38.20;1.00;;;;;;4989710;28;20222;-75
2023/07/12 11:06:25;;;;;;;5.25;3.88;;;35.90;1.00;;;;;;4990100;28;20281;-75
2023/07/12 11:09:00;;;;;;;7.78;3.83;;;36.10;1.00;;;;;;4983266;28;20582;-75
2023/07/12 11:11:42;;;;;;;7.07;3.92;;;37.60;1.00;;;;;;4989692;28;20711;-75
2023/07/12 11:14:31;;;;;;;6.75;3.75;;;37.70;1.00;;;;;;4989857;28;20211;-75
2023/07/12 11:17:06;;;;;;;6.95;3.45;;;38.30;1.00;;;;;;4984137;28;20187;-75
2023/07/12 11:19:40;;;;;;;6.50;3.58;;;38.00;1.00;;;;;;4989477;28;20589;-75
2023/07/12 11:22:22;;;;;;;8.65;3.97;;;36.80;1.00;;;;;;4989573;28;20554;-75
2023/07/12 11:24:52;;;;;;;7.53;4.30;;;36.70;1.00;;;;;;4982399;28;20178;-75
2023/07/12 11:27:40;;;;;;;7.43;4.07;;;35.60;1.00;;;;;;4989500;28;20654;-72
2023/07/12 11:30:35;;;;;;;8.25;3.60;;;35.00;1.00;;;;;;4989857;28;20550;-75
2023/07/12 11:33:19;;;;;;;6.38;3.97;;;35.30;1.00;;;;;;4975084;28;20635;-75
2023/07/12 11:36:01;;;;;;;8.93;4.03;;;34.60;1.00;;;;;;4989682;28;20186;-75
2023/07/12 11:38:29;;;;;;;5.95;3.80;;;34.30;1.00;;;;;;4989364;28;20194;-74
2023/07/12 11:40:58;;;;;;;7.03;3.60;;;34.70;1.00;;;;;;4988396;28;20606;-74
2023/07/12 11:43:23;;;;;;;6.50;3.90;;;35.10;1.00;;;;;;4988960;28;20252;-74
2023/07/12 11:45:54;;;;;;;6.07;3.85;;;35.10;1.00;;;;;;4989719;28;20226;-75
2023/07/12 11:48:21;;;;;;;7.28;3.70;;;35.30;1.00;;;;;;4989563;28;20190;-72
2023/07/12 11:50:51;;;;;;;8.40;3.42;;;36.60;1.00;;;;;;4989738;28;20179;-74
2023/07/12 11:53:18;;;;;;;6.63;3.40;;;37.50;1.00;;;;;;4989578;28;20611;-75
2023/07/12 11:55:47;;;;;;;7.53;3.60;;;38.00;1.00;;;;;;4989247;28;20270;-75
2023/07/12 11:58:22;;;;;;;6.07;3.47;;;37.10;1.00;;;;;;4993151;28;20182;-75
2023/07/12 12:00:49;;;;;;;8.85;3.10;;;36.60;1.00;;;;;;4985589;28;20209;-75
2023/07/12 12:03:16;;;;;;;9.65;3.40;;;35.80;1.00;;;;;;4993187;28;20550;-73
2023/07/12 12:05:44;;;;;;;6.07;3.45;;;35.70;1.00;;;;;;4988038;28;20239;-75
2023/07/12 12:08:30;;;;;;;5.97;3.53;;;35.60;1.00;;;;;;4993007;28;20208;-75
2023/07/12 12:10:57;;;;;;;5.68;3.78;;;35.80;1.00;;;;;;4993172;28;20415;-74
2023/07/12 12:13:27;;;;;;;10.40;3.78;;;35.90;1.00;;;;;;4992249;28;20569;-72
2023/07/12 12:16:06;;;;;;;4.40;3.03;;;36.50;1.00;;;;;;4991868;28;20210;-75
2023/07/12 12:18:33;;;;;;;4.40;3.30;;;36.30;1.00;;;;;;4992352;28;20573;-74
2023/07/12 12:21:05;;;;;;;6.70;3.10;;;37.00;1.00;;;;;;4993129;28;20536;-75
2023/07/12 12:23:32;;;;;;;6.63;3.50;;;36.80;1.00;;;;;;4991982;28;20681;-74
2023/07/12 12:26:02;;;;;;;5.78;3.42;;;36.10;1.00;;;;;;4992976;28;20719;-75
2023/07/12 12:28:32;;;;;;;5.00;3.30;;;35.80;1.00;;;;;;4992329;28;20230;-75
2023/07/12 12:31:04;;;;;;;6.78;3.30;;;36.30;1.00;;;;;;4992746;28;20273;-75
2023/07/12 12:33:30;;;;;;;5.38;3.78;;;36.20;1.00;;;;;;4992543;28;20203;-73
2023/07/12 12:36:03;;;;;;;7.10;3.42;;;36.20;1.00;;;;;;4993098;28;20288;-75
2023/07/12 12:38:35;;;;;;;7.18;3.40;;;36.00;1.00;;;;;;4990726;28;20189;-74
2023/07/12 12:41:14;;;;;;;5.88;3.20;;;36.40;1.00;;;;;;4992966;28;20186;-76
2023/07/12 12:43:56;;;;;;;4.40;2.95;;;37.20;1.00;;;;;;4991605;28;20656;-75
2023/07/12 12:46:22;;;;;;;4.35;2.90;;;37.20;1.00;;;;;;4991227;28;20214;-75
2023/07/12 12:48:54;;;;;;;6.25;2.95;;;37.50;1.00;;;;;;4991484;28;20178;-76
2023/07/12 12:51:22;;;;;;;8.90;3.28;;;38.50;1.00;;;;;;4992658;28;20186;-75
2023/07/12 12:53:48;;;;;;;9.68;3.10;;;39.70;1.00;;;;;;4991171;28;20194;-75
2023/07/12 12:56:14;;;;;;;6.43;3.08;;;40.40;1.00;;;;;;4992627;28;20182;-76
2023/07/12 12:58:40;;;;;;;6.47;2.97;;;39.30;1.00;;;;;;4991734;28;20187;-75
2023/07/12 13:01:07;;;;;;;5.20;3.13;;;38.60;1.00;;;;;;4991332;28;20189;-75